createdAt,value
2017-10-03T00:00:45.557Z,1.70
2017-10-03T00:03:13.687Z,0.90
2017-10-03T00:05:42.581Z,1.17
2017-10-03T00:08:11.633Z,1.20
2017-10-03T00:10:39.768Z,1.00
2017-10-03T00:13:07.895Z,0.97
2017-10-03T00:15:36.253Z,1.30
2017-10-03T00:18:04.393Z,1.20
2017-10-03T00:20:32.529Z,1.47
2017-10-03T00:23:00.698Z,1.33
2017-10-03T00:25:28.822Z,0.83
2017-10-03T00:27:57.098Z,0.90
2017-10-03T00:30:25.243Z,1.27
2017-10-03T00:32:53.389Z,1.60
2017-10-03T00:35:22.307Z,1.83
2017-10-03T00:37:50.834Z,1.03
2017-10-03T00:40:19.041Z,1.00
2017-10-03T00:42:47.926Z,1.27
2017-10-03T00:45:16.828Z,1.50
2017-10-03T00:47:45.860Z,1.50
2017-10-03T00:50:13.980Z,1.60
2017-10-03T00:52:42.880Z,1.73
2017-10-03T00:55:12.122Z,1.50
2017-10-03T00:57:40.717Z,1.27
2017-10-03T01:00:08.857Z,1.30
2017-10-03T01:02:37.041Z,1.60
2017-10-03T01:05:05.151Z,1.50
2017-10-03T01:07:33.277Z,1.10
2017-10-03T01:10:01.447Z,1.00
2017-10-03T01:12:29.825Z,0.90
2017-10-03T01:14:57.992Z,1.10
2017-10-03T01:17:26.118Z,1.10
2017-10-03T01:19:55.023Z,1.40
2017-10-03T01:22:24.063Z,1.20
2017-10-03T01:24:52.175Z,1.20
2017-10-03T01:27:21.091Z,1.00
2017-10-03T01:29:49.498Z,1.07
2017-10-03T01:32:17.642Z,1.27
2017-10-03T01:34:45.779Z,1.07
2017-10-03T01:37:13.951Z,1.17
2017-10-03T01:39:42.067Z,1.00
2017-10-03T01:42:10.211Z,0.93
2017-10-03T01:44:38.378Z,1.07
2017-10-03T01:47:07.264Z,1.20
2017-10-03T01:49:36.157Z,1.10
2017-10-03T01:52:05.077Z,1.10
2017-10-03T01:54:33.211Z,1.23
2017-10-03T01:57:02.155Z,0.97
2017-10-03T01:59:30.282Z,0.90
2017-10-03T02:01:59.314Z,1.07
2017-10-03T02:04:27.437Z,0.80
2017-10-03T02:06:55.580Z,1.10
2017-10-03T02:09:23.838Z,0.90
2017-10-03T02:11:51.969Z,0.90
2017-10-03T02:14:20.112Z,1.00
2017-10-03T02:16:48.442Z,1.13
2017-10-03T02:19:16.581Z,0.90
2017-10-03T02:21:45.487Z,0.83
2017-10-03T02:24:13.740Z,0.90
2017-10-03T02:26:42.652Z,1.00
2017-10-03T02:29:10.794Z,0.90
2017-10-03T02:31:39.871Z,1.10
2017-10-03T02:34:07.991Z,1.00
2017-10-03T02:36:36.131Z,0.70
2017-10-03T02:39:05.021Z,1.10
2017-10-03T02:41:33.941Z,1.10
2017-10-03T02:44:02.057Z,0.83
2017-10-03T02:46:30.237Z,0.90
2017-10-03T02:48:58.366Z,0.90
2017-10-03T02:51:26.498Z,1.10
2017-10-03T02:53:55.414Z,0.80
2017-10-03T02:56:23.549Z,1.00
2017-10-03T02:58:52.483Z,1.20
2017-10-03T03:01:20.602Z,0.80
2017-10-03T03:03:48.917Z,0.83
2017-10-03T03:06:17.049Z,0.70
2017-10-03T03:08:45.967Z,1.00
2017-10-03T03:11:14.140Z,0.80
2017-10-03T03:13:42.265Z,0.90
2017-10-03T03:16:10.438Z,0.90
2017-10-03T03:18:38.568Z,0.83
2017-10-03T03:21:06.700Z,0.73
2017-10-03T03:23:35.729Z,1.10
2017-10-03T03:26:03.853Z,0.80
2017-10-03T03:28:31.968Z,0.73
2017-10-03T03:31:00.247Z,0.70
2017-10-03T03:33:28.373Z,0.80
2017-10-03T03:35:56.511Z,0.80
2017-10-03T03:38:24.786Z,0.80
2017-10-03T03:40:52.908Z,0.70
2017-10-03T03:43:21.809Z,0.70
2017-10-03T03:45:50.078Z,1.00
2017-10-03T03:48:18.994Z,0.90
2017-10-03T03:50:47.146Z,0.80
2017-10-03T03:53:15.304Z,0.90
2017-10-03T03:55:44.207Z,0.80
2017-10-03T03:58:12.462Z,0.73
2017-10-03T04:00:41.362Z,0.80
2017-10-03T04:03:10.352Z,0.90
2017-10-03T04:05:39.393Z,0.70
2017-10-03T04:08:07.516Z,0.80
2017-10-03T04:10:36.399Z,0.90
2017-10-03T04:13:05.336Z,0.80
2017-10-03T04:15:34.357Z,0.93
2017-10-03T04:18:02.484Z,0.90
2017-10-03T04:20:30.640Z,0.90
2017-10-03T04:22:58.772Z,0.80
2017-10-03T04:25:26.916Z,0.80
2017-10-03T04:27:55.032Z,1.13
2017-10-03T04:30:24.091Z,0.90
2017-10-03T04:32:52.220Z,0.90
2017-10-03T04:35:20.356Z,1.10
2017-10-03T04:37:48.509Z,0.90
2017-10-03T04:40:16.663Z,0.80
2017-10-03T04:42:44.804Z,0.90
2017-10-03T04:45:12.929Z,0.90
2017-10-03T04:47:41.876Z,0.93
2017-10-03T04:50:10.629Z,0.90
2017-10-03T04:52:39.526Z,0.90
2017-10-03T04:55:07.685Z,0.97
2017-10-03T04:57:36.591Z,1.07
2017-10-03T05:00:05.522Z,0.97
2017-10-03T05:02:33.644Z,1.00
2017-10-03T05:05:02.568Z,1.10
2017-10-03T05:07:30.689Z,1.10
2017-10-03T05:09:58.948Z,0.90
2017-10-03T05:12:27.064Z,0.80
2017-10-03T05:14:55.191Z,1.10
2017-10-03T05:17:23.456Z,1.50
2017-10-03T05:19:51.577Z,1.10
2017-10-03T05:22:19.732Z,0.90
2017-10-03T05:24:48.660Z,1.00
2017-10-03T05:27:16.791Z,1.10
2017-10-03T05:29:45.718Z,0.93
2017-10-03T05:32:13.850Z,1.20
2017-10-03T05:34:42.781Z,1.00
2017-10-03T05:37:10.915Z,1.33
2017-10-03T05:39:39.853Z,0.83
2017-10-03T05:42:07.977Z,0.93
2017-10-03T05:44:36.879Z,1.10
2017-10-03T05:47:05.050Z,1.67
2017-10-03T05:49:33.198Z,1.07
2017-10-03T05:52:01.363Z,1.17
2017-10-03T05:54:29.566Z,1.17
2017-10-03T05:56:58.461Z,0.90
2017-10-03T05:59:26.684Z,1.13
2017-10-03T06:01:54.824Z,1.20
2017-10-03T06:04:22.975Z,0.90
2017-10-03T06:06:51.115Z,1.47
2017-10-03T06:09:19.556Z,1.53
2017-10-03T06:11:47.684Z,1.20
2017-10-03T06:14:16.608Z,1.17
2017-10-03T06:16:44.737Z,1.40
2017-10-03T06:19:13.856Z,2.03
2017-10-03T06:21:41.993Z,1.27
2017-10-03T06:24:10.117Z,1.47
2017-10-03T06:26:38.405Z,1.30
2017-10-03T06:29:06.533Z,1.20
2017-10-03T06:31:35.450Z,1.50
2017-10-03T06:34:03.721Z,1.13
2017-10-03T06:36:31.853Z,1.33
2017-10-03T06:39:00.749Z,1.20
2017-10-03T06:41:28.922Z,1.87
2017-10-03T06:43:57.825Z,1.60
2017-10-03T06:46:26.329Z,0.80
2017-10-03T06:48:54.462Z,1.03
2017-10-03T06:51:23.354Z,0.80
2017-10-03T06:53:52.283Z,1.00
2017-10-03T06:56:20.425Z,0.80
2017-10-03T06:58:49.543Z,0.80
2017-10-03T07:01:17.685Z,1.03
2017-10-03T07:03:46.571Z,0.87
2017-10-03T07:06:15.555Z,0.97
2017-10-03T07:08:44.464Z,0.90
2017-10-03T07:11:12.605Z,0.83
2017-10-03T07:13:40.775Z,0.80
2017-10-03T07:16:08.910Z,0.80
2017-10-03T07:18:37.198Z,1.23
2017-10-03T07:21:05.370Z,1.10
2017-10-03T07:23:33.531Z,0.97
2017-10-03T07:26:02.454Z,0.93
2017-10-03T07:28:30.603Z,1.10
2017-10-03T07:30:58.739Z,0.87
2017-10-03T07:33:26.864Z,0.90
2017-10-03T07:35:55.038Z,0.90
2017-10-03T07:38:23.179Z,1.20
2017-10-03T07:40:51.305Z,1.00
2017-10-03T07:43:20.239Z,1.00
2017-10-03T07:45:48.355Z,0.80
2017-10-03T07:48:17.400Z,0.90
2017-10-03T07:50:45.569Z,0.90
2017-10-03T07:53:13.703Z,1.73
2017-10-03T07:55:41.893Z,1.50
2017-10-03T07:58:10.025Z,1.00
2017-10-03T08:00:38.933Z,0.90
2017-10-03T08:03:07.071Z,2.10
2017-10-03T08:05:35.204Z,1.13
2017-10-03T08:08:03.375Z,0.93
2017-10-03T08:10:31.498Z,0.80
2017-10-03T08:12:59.627Z,1.00
2017-10-03T08:15:27.897Z,1.10
2017-10-03T08:17:56.032Z,1.00
2017-10-03T08:20:24.186Z,0.90
2017-10-03T08:22:52.409Z,0.87
2017-10-03T08:25:20.541Z,0.90
2017-10-03T08:27:49.467Z,1.00
2017-10-03T08:30:17.602Z,0.80
2017-10-03T08:32:46.497Z,0.80
2017-10-03T08:35:15.418Z,1.07
2017-10-03T08:37:43.539Z,1.40
2017-10-03T08:40:11.708Z,0.90
2017-10-03T08:42:39.941Z,0.90
2017-10-03T08:45:08.204Z,0.90
2017-10-03T08:47:36.354Z,1.20
2017-10-03T08:50:05.255Z,0.90
2017-10-03T08:52:33.441Z,1.00
2017-10-03T08:55:01.552Z,1.20
2017-10-03T08:57:29.826Z,1.20
2017-10-03T08:59:57.956Z,0.90
2017-10-03T09:02:26.100Z,1.17
2017-10-03T09:04:55.119Z,1.00
2017-10-03T09:07:23.277Z,0.87
2017-10-03T09:09:51.419Z,0.90
2017-10-03T09:12:20.340Z,1.20
2017-10-03T09:14:48.474Z,0.90
2017-10-03T09:17:16.739Z,1.70
2017-10-03T09:19:44.879Z,1.70
2017-10-03T09:22:13.023Z,1.20
2017-10-03T09:24:41.179Z,0.90
2017-10-03T09:27:10.072Z,0.93
2017-10-03T09:32:13.205Z,0.97
2017-10-03T09:34:41.502Z,0.93
2017-10-03T09:37:09.622Z,0.93
2017-10-03T09:39:38.517Z,0.83
2017-10-03T09:42:06.791Z,0.80
2017-10-03T09:44:34.921Z,1.10
2017-10-03T09:47:03.072Z,1.57
2017-10-03T09:49:32.151Z,1.30
2017-10-03T09:52:00.323Z,1.07
2017-10-03T09:54:28.535Z,1.20
2017-10-03T09:56:56.713Z,1.00
2017-10-03T09:59:24.843Z,1.10
2017-10-03T10:01:53.003Z,1.73
2017-10-03T10:04:21.122Z,0.90
2017-10-03T10:06:49.293Z,1.30
2017-10-03T10:09:17.456Z,1.53
2017-10-03T10:11:45.579Z,1.50
2017-10-03T10:14:13.745Z,0.90
2017-10-03T10:16:41.883Z,1.00
2017-10-03T10:19:10.071Z,0.90
2017-10-03T10:21:38.964Z,0.90
2017-10-03T10:24:08.030Z,1.43
2017-10-03T10:26:36.153Z,1.13
2017-10-03T10:29:04.291Z,0.90
2017-10-03T10:31:33.255Z,1.10
2017-10-03T10:34:02.007Z,1.40
2017-10-03T10:36:30.444Z,1.23
2017-10-03T10:38:59.345Z,1.10
2017-10-03T10:41:28.259Z,1.53
2017-10-03T10:43:56.446Z,1.43
2017-10-03T10:46:24.596Z,1.43
2017-10-03T10:48:52.935Z,1.20
2017-10-03T10:51:21.896Z,1.80
2017-10-03T10:53:50.050Z,1.60
2017-10-03T10:56:18.326Z,1.20
2017-10-03T10:58:46.538Z,1.40
2017-10-03T11:01:15.460Z,1.60
2017-10-03T11:03:43.629Z,1.83
2017-10-03T11:06:11.758Z,1.83
2017-10-03T11:08:39.997Z,1.80
2017-10-03T11:11:08.165Z,1.40
2017-10-03T11:13:36.306Z,1.30
2017-10-03T11:16:05.263Z,1.77
2017-10-03T11:18:33.399Z,0.90
2017-10-03T11:21:01.668Z,1.10
2017-10-03T11:23:47.558Z,1.37
2017-10-03T11:26:15.818Z,1.07
2017-10-03T11:28:43.977Z,1.00
2017-10-03T11:31:12.922Z,1.17
2017-10-03T11:33:41.076Z,0.87
2017-10-03T11:36:09.251Z,1.07
2017-10-03T11:38:37.390Z,1.00
2017-10-03T11:41:06.355Z,1.17
2017-10-03T11:43:34.791Z,1.27
2017-10-03T11:46:03.013Z,0.90
2017-10-03T11:48:31.937Z,0.97
2017-10-03T11:51:00.103Z,1.10
2017-10-03T11:53:28.240Z,1.07
2017-10-03T11:55:56.392Z,1.47
2017-10-03T11:58:25.801Z,1.20
2017-10-03T12:00:53.959Z,0.93
2017-10-03T12:03:22.275Z,0.90
2017-10-03T12:05:51.274Z,1.00
2017-10-03T12:08:19.482Z,1.10
2017-10-03T12:10:47.756Z,1.00
2017-10-03T12:13:15.933Z,0.90
2017-10-03T12:15:44.837Z,1.17
2017-10-03T12:18:13.517Z,0.87
2017-10-03T12:20:42.578Z,0.90
2017-10-03T12:23:10.864Z,1.20
2017-10-03T12:25:38.998Z,0.80
2017-10-03T12:28:07.902Z,1.03
2017-10-03T12:30:36.069Z,1.20
2017-10-03T12:33:04.969Z,1.20
2017-10-03T12:35:33.134Z,1.00
2017-10-03T12:38:02.059Z,0.90
2017-10-03T12:40:30.347Z,0.97
2017-10-03T12:42:58.506Z,1.20
2017-10-03T12:45:26.683Z,1.20
2017-10-03T12:47:54.836Z,0.90
2017-10-03T12:50:22.977Z,1.20
2017-10-03T12:52:51.965Z,0.87
2017-10-03T12:55:20.860Z,0.90
2017-10-03T12:57:49.800Z,1.10
2017-10-03T13:00:17.964Z,1.10
2017-10-03T13:02:46.241Z,1.00
2017-10-03T13:05:14.504Z,1.23
2017-10-03T13:07:42.633Z,0.93
2017-10-03T13:10:11.541Z,1.10
2017-10-03T13:12:39.666Z,1.10
2017-10-03T13:15:07.943Z,1.20
2017-10-03T13:17:36.077Z,1.40
2017-10-03T13:20:04.205Z,1.40
2017-10-03T13:22:33.135Z,1.13
2017-10-03T13:25:01.296Z,2.27
2017-10-03T13:27:29.512Z,1.90
2017-10-03T13:29:57.658Z,1.70
2017-10-03T13:32:25.785Z,1.53
2017-10-03T13:34:54.718Z,1.30
2017-10-03T13:37:22.845Z,1.77
2017-10-03T13:39:51.769Z,1.60
2017-10-03T13:42:19.917Z,1.20
2017-10-03T13:44:48.889Z,1.80
2017-10-03T13:47:17.814Z,1.40
2017-10-03T13:49:45.964Z,1.00
2017-10-03T13:52:14.118Z,1.20
2017-10-03T13:54:42.249Z,1.43
2017-10-03T13:57:10.414Z,1.00
2017-10-03T13:59:38.526Z,1.00
2017-10-03T14:02:07.467Z,0.90
2017-10-03T14:04:35.621Z,1.03
2017-10-03T14:07:04.651Z,1.20
2017-10-03T14:09:33.555Z,1.10
2017-10-03T14:12:01.712Z,0.97
2017-10-03T14:14:29.866Z,1.13
2017-10-03T14:16:58.006Z,1.00
2017-10-03T14:19:26.947Z,1.30
2017-10-03T14:21:55.081Z,1.20
2017-10-03T14:24:23.203Z,1.20
2017-10-03T14:26:51.357Z,1.40
2017-10-03T14:29:19.489Z,1.20
2017-10-03T14:31:47.791Z,1.63
2017-10-03T14:34:15.918Z,1.40
2017-10-03T14:36:44.077Z,1.33
2017-10-03T14:39:12.332Z,1.20
2017-10-03T14:41:40.454Z,1.30
2017-10-03T14:44:08.616Z,1.20
2017-10-03T14:46:37.569Z,1.00
2017-10-03T14:49:05.731Z,1.20
2017-10-03T14:51:33.876Z,1.20
2017-10-03T14:54:02.027Z,0.90
2017-10-03T14:56:30.927Z,0.90
2017-10-03T14:58:59.096Z,1.30
2017-10-03T15:01:27.241Z,1.03
2017-10-03T15:03:55.387Z,1.00
2017-10-03T15:06:23.662Z,1.07
2017-10-03T15:08:51.801Z,1.00
2017-10-03T15:11:20.065Z,1.00
2017-10-03T15:13:48.222Z,1.10
2017-10-03T15:16:17.135Z,1.07
2017-10-03T15:18:45.292Z,1.43
2017-10-03T15:21:13.440Z,3.87
2017-10-03T15:23:41.724Z,2.20
2017-10-03T15:26:10.639Z,1.57
2017-10-03T15:28:38.796Z,0.93
2017-10-03T15:31:07.711Z,1.40
2017-10-03T15:33:35.866Z,1.47
2017-10-03T15:36:04.034Z,1.63
2017-10-03T15:38:32.154Z,1.50
2017-10-03T15:41:00.416Z,1.10
2017-10-03T15:43:28.549Z,1.43
2017-10-03T15:45:57.448Z,1.30
2017-10-03T15:48:25.666Z,1.73
2017-10-03T15:50:53.807Z,1.80
2017-10-03T15:53:21.936Z,1.40
2017-10-03T15:55:50.971Z,1.20
2017-10-03T15:58:19.108Z,1.17
2017-10-03T16:00:48.835Z,1.67
2017-10-03T16:03:17.020Z,1.30
2017-10-03T16:05:45.321Z,2.20
2017-10-03T16:08:13.457Z,1.47
2017-10-03T16:10:41.640Z,1.37
2017-10-03T16:13:09.800Z,1.10
2017-10-03T16:15:38.087Z,2.03
2017-10-03T16:18:06.364Z,1.10
2017-10-03T16:20:34.497Z,1.80
2017-10-03T16:23:03.528Z,1.20
2017-10-03T16:25:31.695Z,1.50
2017-10-03T16:28:00.787Z,1.20
2017-10-03T16:30:28.973Z,1.40
2017-10-03T16:32:57.135Z,1.80
2017-10-03T16:35:25.288Z,1.90
2017-10-03T16:37:53.422Z,1.23
2017-10-03T16:40:21.566Z,1.73
2017-10-03T16:42:49.679Z,1.27
2017-10-03T16:45:18.722Z,2.30
2017-10-03T16:47:46.852Z,2.63
2017-10-03T16:50:14.986Z,1.83
2017-10-03T16:52:43.227Z,1.87
2017-10-03T16:55:11.334Z,1.57
2017-10-03T16:57:39.456Z,2.23
2017-10-03T17:00:07.610Z,1.70
2017-10-03T17:02:36.502Z,1.50
2017-10-03T17:05:04.775Z,2.30
2017-10-03T17:07:33.664Z,1.60
2017-10-03T17:10:03.534Z,2.10
2017-10-03T17:12:31.695Z,1.50
2017-10-03T17:14:59.828Z,1.63
2017-10-03T17:17:28.093Z,2.60
2017-10-03T17:19:57.541Z,1.80
2017-10-03T17:22:25.799Z,1.70
2017-10-03T17:24:54.103Z,3.37
2017-10-03T17:27:22.275Z,2.97
2017-10-03T17:29:50.754Z,3.27
2017-10-03T17:32:19.197Z,1.97
2017-10-03T17:34:47.882Z,2.43
2017-10-03T17:37:16.678Z,1.93
2017-10-03T17:39:45.409Z,2.03
2017-10-03T17:42:14.222Z,2.53
2017-10-03T17:44:43.062Z,2.37
2017-10-03T17:47:11.668Z,2.23
2017-10-03T17:49:40.329Z,2.80
2017-10-03T17:52:09.719Z,3.17
2017-10-03T17:54:39.248Z,3.90
2017-10-03T17:57:07.947Z,2.57
2017-10-03T17:59:37.246Z,2.83
2017-10-03T18:02:06.518Z,2.20
2017-10-03T18:04:35.768Z,2.77
2017-10-03T18:07:05.030Z,2.80
2017-10-03T18:09:34.275Z,2.60
2017-10-03T18:12:03.541Z,3.00
2017-10-03T18:14:33.015Z,3.13
2017-10-03T18:17:02.473Z,3.30
2017-10-03T18:19:33.338Z,2.60
2017-10-03T18:22:02.606Z,3.10
2017-10-03T18:24:33.743Z,2.67
2017-10-03T18:27:03.932Z,3.07
2017-10-03T18:29:33.254Z,2.90
2017-10-03T18:32:03.281Z,2.57
2017-10-03T18:34:33.416Z,2.30
2017-10-03T18:37:02.673Z,3.07
2017-10-03T18:39:32.803Z,2.60
2017-10-03T18:42:02.794Z,3.03
2017-10-03T18:44:32.205Z,2.63
2017-10-03T18:47:02.277Z,5.67
2017-10-03T18:49:31.694Z,3.00
2017-10-03T18:52:00.991Z,2.60
2017-10-03T18:54:30.277Z,2.50
2017-10-03T18:56:59.650Z,2.70
2017-10-03T18:59:28.970Z,3.37
2017-10-03T19:01:58.481Z,2.80
2017-10-03T19:04:27.804Z,2.93
2017-10-03T19:06:57.130Z,3.90
2017-10-03T19:09:27.369Z,3.00
2017-10-03T19:11:56.657Z,3.17
2017-10-03T19:14:26.176Z,3.37
2017-10-03T19:16:55.445Z,3.70
2017-10-03T19:19:25.902Z,3.30
2017-10-03T19:21:55.226Z,3.60
2017-10-03T19:24:24.548Z,3.43
2017-10-03T19:26:54.096Z,3.30
2017-10-03T19:29:23.415Z,3.03
2017-10-03T19:31:52.715Z,3.27
2017-10-03T19:34:22.300Z,3.50
2017-10-03T19:36:51.597Z,4.27
2017-10-03T19:39:21.000Z,3.90
2017-10-03T19:41:50.525Z,3.53
2017-10-03T19:44:19.818Z,3.17
2017-10-03T19:46:49.102Z,3.37
2017-10-03T19:49:18.494Z,4.40
2017-10-03T19:51:47.927Z,3.97
2017-10-03T19:54:17.520Z,2.90
2017-10-03T19:56:47.018Z,4.30
2017-10-03T19:59:16.337Z,4.17
2017-10-03T20:01:45.868Z,5.37
2017-10-03T20:04:15.938Z,3.73
2017-10-03T20:06:46.092Z,4.10
2017-10-03T20:09:15.321Z,3.57
2017-10-03T20:11:45.674Z,3.83
2017-10-03T20:14:14.927Z,2.83
2017-10-03T20:16:44.332Z,3.57
2017-10-03T20:19:13.640Z,3.73
2017-10-03T20:21:43.834Z,3.37
2017-10-03T20:24:13.354Z,3.30
2017-10-03T20:26:44.512Z,3.33
2017-10-03T20:29:15.335Z,3.43
2017-10-03T20:31:45.203Z,4.33
2017-10-03T20:34:15.322Z,4.43
2017-10-03T20:36:45.182Z,3.80
2017-10-03T20:39:16.040Z,3.13
2017-10-03T20:41:46.858Z,3.30
2017-10-03T20:44:16.202Z,3.03
2017-10-03T20:46:46.155Z,3.73
2017-10-03T20:49:16.010Z,4.30
2017-10-03T20:51:45.440Z,2.50
2017-10-03T20:54:14.359Z,3.20
2017-10-03T20:56:43.015Z,3.10
2017-10-03T20:59:11.433Z,2.77
2017-10-03T21:01:39.869Z,3.50
2017-10-03T21:04:08.794Z,3.20
2017-10-03T21:06:37.717Z,3.53
2017-10-03T21:09:05.881Z,2.70
2017-10-03T21:11:34.014Z,2.27
2017-10-03T21:14:03.043Z,3.40
2017-10-03T21:16:31.177Z,3.00
2017-10-03T21:19:00.201Z,3.40
2017-10-03T21:21:28.321Z,3.73
2017-10-03T21:23:56.443Z,4.50
2017-10-03T21:26:24.588Z,4.23
2017-10-03T21:28:53.494Z,2.83
2017-10-03T21:31:21.718Z,3.27
2017-10-03T21:33:49.849Z,3.00
2017-10-03T21:36:17.981Z,2.60
2017-10-03T21:38:46.892Z,3.83
2017-10-03T21:41:15.096Z,3.47
2017-10-03T21:43:43.364Z,3.00
2017-10-03T21:46:11.510Z,1.87
2017-10-03T21:48:39.648Z,3.53
2017-10-03T21:51:07.932Z,4.13
2017-10-03T21:53:36.035Z,3.13
2017-10-03T21:56:04.194Z,2.43
2017-10-03T21:58:33.084Z,3.50
2017-10-03T22:01:02.007Z,2.90
2017-10-03T22:03:30.134Z,2.77
2017-10-03T22:05:59.036Z,3.73
2017-10-03T22:08:27.274Z,2.63
2017-10-03T22:10:55.387Z,2.60
2017-10-03T22:13:23.500Z,3.17
2017-10-03T22:15:51.741Z,3.70
2017-10-03T22:18:19.881Z,3.40
2017-10-03T22:20:48.760Z,3.60
2017-10-03T22:23:17.014Z,2.27
2017-10-03T22:25:45.129Z,3.37
2017-10-03T22:28:13.294Z,3.10
2017-10-03T22:30:42.314Z,3.17
2017-10-03T22:33:10.428Z,2.67
2017-10-03T22:35:38.546Z,3.50
2017-10-03T22:38:06.706Z,4.13
2017-10-03T22:40:34.843Z,2.70
2017-10-03T22:43:02.970Z,3.00
2017-10-03T22:45:31.105Z,2.63
2017-10-03T22:48:00.047Z,2.90
2017-10-03T22:50:28.171Z,2.57
2017-10-03T22:52:57.070Z,3.30
2017-10-03T22:55:25.300Z,2.93
2017-10-03T22:57:53.439Z,3.13
2017-10-03T23:00:21.569Z,2.50
2017-10-03T23:02:50.484Z,3.50
2017-10-03T23:05:18.587Z,2.57
2017-10-03T23:07:46.739Z,2.37
2017-10-03T23:10:14.867Z,3.13
2017-10-03T23:12:43.747Z,2.40
2017-10-03T23:15:12.006Z,2.80
2017-10-03T23:17:40.129Z,2.57
2017-10-03T23:20:08.254Z,2.43
2017-10-03T23:22:36.386Z,2.43
2017-10-03T23:25:04.518Z,2.37
2017-10-03T23:27:33.414Z,3.30
2017-10-03T23:30:02.326Z,3.20
2017-10-03T23:32:30.439Z,2.67
2017-10-03T23:34:58.563Z,2.47
2017-10-03T23:37:26.720Z,2.77
2017-10-03T23:39:55.743Z,2.50
2017-10-03T23:42:24.087Z,2.10
2017-10-03T23:44:52.981Z,2.80
2017-10-03T23:47:21.998Z,2.37
2017-10-03T23:49:50.112Z,2.83
2017-10-03T23:52:18.240Z,2.90
2017-10-03T23:54:46.388Z,2.47
2017-10-03T23:57:14.500Z,2.40
2017-10-03T23:59:42.627Z,2.67
